Terminal Aerodrome Forecast
Issued by NWS

Home | Current Version | Previous Version | Text Only | Print | Product List | Glossary On
Versions: 1 2 3 4 5 6 7 8 9 10 11 12 13 14 15 16 17 18 19 20 21 22 23 24 25
000
FTUS42 KJAX 280500
TAFCRG
TAF
KCRG 280522Z 2806/2906 00000KT P6SM SKC
     FM281500 VRB04KT P6SM FEW035
     FM281900 11007KT P6SM SCT050
     FM290000 15003KT P6SM FEW060=

USA.gov is the U.S. government's official web portal to all federal, state and local government web resources and services.